MET'MAP v2.0
soon released !

Expected late october,
this new version will be
more efficient, smarter,
and hosted on a brand new
server x3 powerfull...
...and still free !


Not compatible ?
Try the mobile version !

LOG IN : | Subscribe | Disclaimer | Who is Orbifly ? |
ICAO code :

TAF - LTBF Balikesir - 20 Sep 2020 21:27 UTC - Data Source NOAA   


- Airport Elevation : 340 ft
- IATA code : BZI
- No reported NOTAMs.


LTBF - Balikesir

Latest METAR recorded : 2015/08/11 06:50 LTBF 110650Z VRB02KT 9999 FEW035 27/17 Q1011 NOSIG
TAF TAF LTBF
Valid from the 20 at 18:00 until the 21 at 03:00 UTC


201640Z 2018/2103 01015KT 9999 SCT020 SCT035

Source NOAA


MET'MAP, your aeronautical weather chart ! - Copyright ORBIFLY December 2007

Programming & Development : Alexandra Zaïnal
Co-Developer : Marc-Olivier Méhu
Technical & hardware support : Manuel Goepfert
Concept & Financing : Baudouin d'Aumeries